createdAt,value
2022-08-18T00:04:57.916Z,29.73
2022-08-18T00:10:01.470Z,27.33
2022-08-18T00:15:05.740Z,27.43
2022-08-18T00:20:12.255Z,27.80
2022-08-18T00:25:15.687Z,27.23
2022-08-18T00:30:22.710Z,27.17
2022-08-18T00:35:36.982Z,24.57
2022-08-18T00:40:43.708Z,26.07
2022-08-18T00:45:49.243Z,27.00
2022-08-18T00:50:57.870Z,24.17
2022-08-18T00:56:13.756Z,28.90
2022-08-18T01:01:23.749Z,28.17
2022-08-18T01:06:34.429Z,32.73
2022-08-18T01:11:38.279Z,28.13
2022-08-18T01:16:59.242Z,26.98
2022-08-18T01:22:08.885Z,26.67
2022-08-18T01:27:17.987Z,26.80
2022-08-18T01:32:23.056Z,26.58
2022-08-18T01:37:41.412Z,26.67
2022-08-18T01:42:48.267Z,24.98
2022-08-18T01:47:52.921Z,24.17
2022-08-18T01:52:57.604Z,24.88
2022-08-18T01:58:02.499Z,25.60
2022-08-18T02:03:08.574Z,27.00
2022-08-18T02:08:13.579Z,32.63
2022-08-18T02:13:16.057Z,39.20
2022-08-18T02:18:45.303Z,52.20
2022-08-18T02:23:52.805Z,58.15
2022-08-18T02:29:00.982Z,58.77
2022-08-18T02:34:06.330Z,56.65
2022-08-18T02:39:08.640Z,61.97
2022-08-18T02:44:15.698Z,71.30
2022-08-18T02:49:20.493Z,81.65
2022-08-18T02:54:23.439Z,84.13
2022-08-18T02:59:28.169Z,69.43
2022-08-18T03:04:34.860Z,63.47
2022-08-18T03:09:42.661Z,104.93
2022-08-18T03:14:47.336Z,68.72
2022-08-18T03:19:52.836Z,65.82
2022-08-18T03:25:00.182Z,86.70
2022-08-18T03:30:11.341Z,78.43
2022-08-18T03:35:18.664Z,74.88
2022-08-18T03:40:20.923Z,69.70
2022-08-18T03:45:24.469Z,76.63
2022-08-18T03:50:27.342Z,65.30
2022-08-18T03:55:29.585Z,63.33
2022-08-18T04:00:37.847Z,68.15
2022-08-18T04:05:40.653Z,65.70
2022-08-18T04:10:50.268Z,64.68
2022-08-18T04:15:52.675Z,61.95
2022-08-18T04:20:59.171Z,67.32
2022-08-18T04:26:02.170Z,63.58
2022-08-18T04:31:10.335Z,67.47
2022-08-18T04:36:20.610Z,67.57
2022-08-18T04:41:26.371Z,74.93
2022-08-18T04:46:34.828Z,72.25
2022-08-18T04:52:34.362Z,72.90
2022-08-18T04:57:12.121Z,61.17
2022-08-18T05:02:18.622Z,61.42
2022-08-18T05:07:23.310Z,59.87
2022-08-18T05:12:26.816Z,60.25
2022-08-18T05:17:30.481Z,56.08
2022-08-18T05:22:40.798Z,52.77
2022-08-18T05:27:45.823Z,49.63
2022-08-18T05:32:50.790Z,50.00
2022-08-18T05:38:02.203Z,48.88
2022-08-18T05:43:11.265Z,58.05
2022-08-18T05:48:15.767Z,52.45
2022-08-18T05:53:40.579Z,47.20
2022-08-18T05:58:49.316Z,46.77
2022-08-18T06:04:02.709Z,44.03
2022-08-18T06:09:11.048Z,50.58
2022-08-18T06:14:17.056Z,46.90
2022-08-18T06:19:36.267Z,45.10
2022-08-18T06:24:43.722Z,39.65
2022-08-18T06:30:05.442Z,39.40
2022-08-18T06:35:10.908Z,36.75
2022-08-18T06:40:13.713Z,34.72
2022-08-18T06:45:19.414Z,25.08
2022-08-18T06:50:47.189Z,25.33
2022-08-18T06:55:53.134Z,20.52
2022-08-18T07:01:06.801Z,19.50
2022-08-18T07:06:11.304Z,19.08
2022-08-18T07:11:14.368Z,17.65
2022-08-18T07:16:47.054Z,17.45
2022-08-18T07:22:01.850Z,17.95
2022-08-18T07:27:07.483Z,19.52
2022-08-18T07:32:21.046Z,17.83
2022-08-18T07:37:37.113Z,20.00
2022-08-18T07:43:00.691Z,22.35
2022-08-18T07:53:54.833Z,17.98
2022-08-18T07:59:05.813Z,20.02
2022-08-18T08:04:32.109Z,17.83
2022-08-18T08:09:40.505Z,19.60
2022-08-18T08:14:46.793Z,17.50
2022-08-18T08:20:10.012Z,17.02
2022-08-18T08:25:35.125Z,16.52
2022-08-18T08:31:05.207Z,19.45
2022-08-18T08:36:27.859Z,20.70
2022-08-18T08:41:36.488Z,17.60
2022-08-18T08:46:47.890Z,26.05
2022-08-18T08:51:57.450Z,21.55
2022-08-18T08:57:07.314Z,18.35
2022-08-18T09:02:46.585Z,19.65
2022-08-18T09:08:18.359Z,17.85
2022-08-18T09:13:28.905Z,17.63
2022-08-18T09:18:45.005Z,17.85
2022-08-18T09:23:52.706Z,16.70
2022-08-18T09:29:13.366Z,19.05
2022-08-18T09:34:24.987Z,16.60
2022-08-18T09:39:53.791Z,16.30
2022-08-18T09:45:02.262Z,17.25
2022-08-18T09:50:06.975Z,20.02
2022-08-18T09:55:18.705Z,16.42
2022-08-18T10:00:29.362Z,18.63
2022-08-18T10:05:35.433Z,15.60
2022-08-18T10:16:13.583Z,14.38
2022-08-18T10:26:55.175Z,20.75
2022-08-18T10:32:00.007Z,17.25
2022-08-18T10:37:11.782Z,17.88
2022-08-18T10:42:21.728Z,22.00
2022-08-18T10:47:33.623Z,19.70
2022-08-18T10:53:35.000Z,19.67
2022-08-18T10:58:38.072Z,24.35
2022-08-18T11:03:50.156Z,16.90
2022-08-18T11:09:02.395Z,20.10
2022-08-18T11:14:23.898Z,20.90
2022-08-18T11:19:26.580Z,17.10
2022-08-18T11:24:31.595Z,18.00
2022-08-18T11:29:38.421Z,17.25
2022-08-18T11:34:52.002Z,25.13
2022-08-18T11:40:02.950Z,18.23
2022-08-18T11:45:24.885Z,15.15
2022-08-18T11:50:32.352Z,19.38
2022-08-18T11:55:39.657Z,21.58
2022-08-18T12:00:55.053Z,21.05
2022-08-18T12:06:19.406Z,15.70
2022-08-18T12:11:30.797Z,19.27
2022-08-18T12:16:38.120Z,21.98
2022-08-18T12:21:42.162Z,17.23
2022-08-18T12:26:47.760Z,15.48
2022-08-18T12:31:59.963Z,13.98
2022-08-18T12:37:14.275Z,16.08
2022-08-18T12:42:28.987Z,15.75
2022-08-18T12:47:38.394Z,13.98
2022-08-18T12:52:47.576Z,13.13
2022-08-18T12:57:54.819Z,15.13
2022-08-18T13:03:05.257Z,16.55
2022-08-18T13:08:30.093Z,13.43
2022-08-18T13:18:47.286Z,16.85
2022-08-18T13:23:54.766Z,28.35
2022-08-18T13:28:59.927Z,16.00
2022-08-18T13:34:03.975Z,17.83
2022-08-18T13:39:09.197Z,13.88
2022-08-18T13:44:18.806Z,11.38
2022-08-18T13:49:30.422Z,14.57
2022-08-18T13:54:36.923Z,12.68
2022-08-18T13:59:46.498Z,10.65
2022-08-18T14:04:56.105Z,12.88
2022-08-18T14:09:59.128Z,11.10
2022-08-18T14:15:09.221Z,11.25
2022-08-18T14:20:48.371Z,12.18
2022-08-18T14:26:13.450Z,13.30
2022-08-18T14:31:20.572Z,11.95
2022-08-18T14:36:30.182Z,12.27
2022-08-18T14:41:35.829Z,15.00
2022-08-18T14:46:52.383Z,12.00
2022-08-18T14:52:02.841Z,10.07
2022-08-18T14:57:09.693Z,14.20
2022-08-18T15:02:16.796Z,12.43
2022-08-18T15:07:21.267Z,13.98
2022-08-18T15:12:31.288Z,13.55
2022-08-18T15:17:38.959Z,12.73
2022-08-18T15:23:00.644Z,10.82
2022-08-18T15:28:06.230Z,11.93
2022-08-18T15:33:27.185Z,16.88
2022-08-18T15:38:36.349Z,12.13
2022-08-18T15:43:46.385Z,8.98
2022-08-18T15:48:57.469Z,15.25
2022-08-18T15:54:00.647Z,11.77
2022-08-18T15:59:07.902Z,9.35
2022-08-18T16:04:15.633Z,8.40
2022-08-18T16:09:22.905Z,11.95
2022-08-18T16:14:27.658Z,14.07
2022-08-18T16:19:33.084Z,13.63
2022-08-18T16:24:40.272Z,11.10
2022-08-18T16:29:48.543Z,9.50
2022-08-18T16:34:53.992Z,10.57
2022-08-18T16:39:56.531Z,9.32
2022-08-18T16:45:04.865Z,12.05
2022-08-18T16:50:12.218Z,13.75
2022-08-18T16:55:14.997Z,14.02
2022-08-18T17:00:44.032Z,10.02
2022-08-18T17:06:00.431Z,12.70
2022-08-18T17:11:11.316Z,8.38
2022-08-18T17:16:13.903Z,9.63
2022-08-18T17:21:20.263Z,9.50
2022-08-18T17:26:24.983Z,10.05
2022-08-18T17:31:32.359Z,14.77
2022-08-18T17:36:39.195Z,13.48
2022-08-18T17:42:03.535Z,14.40
2022-08-18T17:47:09.575Z,13.27
2022-08-18T17:52:12.183Z,12.77
2022-08-18T17:57:16.763Z,16.13
2022-08-18T18:02:29.811Z,12.07
2022-08-18T18:07:35.925Z,13.35
2022-08-18T18:12:45.680Z,13.60
2022-08-18T18:17:47.946Z,12.50
2022-08-18T18:22:55.094Z,10.82
2022-08-18T18:28:02.145Z,11.10
2022-08-18T18:33:15.649Z,9.80
2022-08-18T18:38:25.697Z,12.07
2022-08-18T18:43:38.278Z,14.68
2022-08-18T18:48:59.673Z,12.93
2022-08-18T18:54:11.402Z,13.32
2022-08-18T18:59:38.462Z,12.70
2022-08-18T19:04:51.592Z,14.15
2022-08-18T19:10:00.872Z,14.50
2022-08-18T19:15:15.304Z,16.38
2022-08-18T19:20:17.619Z,19.25
2022-08-18T19:25:22.229Z,14.63
2022-08-18T19:30:24.642Z,16.08
2022-08-18T19:35:35.336Z,16.25
2022-08-18T19:40:45.126Z,17.10
2022-08-18T19:45:58.357Z,22.23
2022-08-18T19:51:10.302Z,12.55
2022-08-18T19:56:29.228Z,13.93
2022-08-18T20:01:31.568Z,14.80
2022-08-18T20:06:52.910Z,13.68
2022-08-18T20:12:12.302Z,14.05
2022-08-18T20:17:19.048Z,15.82
2022-08-18T20:22:21.800Z,15.27
2022-08-18T20:27:35.934Z,18.08
2022-08-18T20:32:41.072Z,16.23
2022-08-18T20:37:46.430Z,14.27
2022-08-18T20:42:56.371Z,16.10
2022-08-18T20:48:14.853Z,17.97
2022-08-18T20:53:37.234Z,17.63
2022-08-18T20:58:45.694Z,17.97
2022-08-18T21:03:52.705Z,18.83
2022-08-18T21:08:58.361Z,18.38
2022-08-18T21:14:04.277Z,19.20
2022-08-18T21:19:08.711Z,15.17
2022-08-18T21:24:22.320Z,18.40
2022-08-18T21:29:25.404Z,17.37
2022-08-18T21:34:30.183Z,15.10
2022-08-18T21:39:32.614Z,16.57
2022-08-18T21:44:41.923Z,16.40
2022-08-18T21:50:08.384Z,21.80
2022-08-18T21:55:19.262Z,14.70
2022-08-18T22:00:25.947Z,19.10
2022-08-18T22:05:58.979Z,18.97
2022-08-18T22:12:00.553Z,16.13
2022-08-18T22:17:25.548Z,18.00
2022-08-18T22:22:48.955Z,19.43
2022-08-18T22:27:57.553Z,19.10
2022-08-18T22:32:59.888Z,17.77
2022-08-18T22:38:02.283Z,16.83
2022-08-18T22:43:09.586Z,17.70
2022-08-18T22:48:16.612Z,15.63
2022-08-18T22:53:19.157Z,15.33
2022-08-18T22:58:21.624Z,17.10
2022-08-18T23:03:42.504Z,15.65
2022-08-18T23:08:55.097Z,17.77
2022-08-18T23:14:02.455Z,18.58
2022-08-18T23:19:07.394Z,16.65
2022-08-18T23:24:14.361Z,16.75
2022-08-18T23:29:21.805Z,16.10
2022-08-18T23:34:31.791Z,17.92
2022-08-18T23:39:34.644Z,15.43
2022-08-18T23:44:39.367Z,19.02
2022-08-18T23:49:44.117Z,14.52
2022-08-18T23:54:48.909Z,15.95
2022-08-18T23:59:56.252Z,16.05
